Airfield :
LOGIN :

Register | Disclaimer

   EN    FR    IT 

 










Legend :    VFR   Marginal VFR   IFR   Intensive IFR   Very Intensive IFR
Visi :
Ceiling :
>= 8 km
>= 3000ft
5 to 8 km
1000 to 3000 ft
1500m to 5 km
500 to 1000 ft
800 to 1500m
200 to 500 ft
< 800m
< 200 ft
Symbols :   Thunderstorms  Fog  Heavy snow  Heavy precipitations  Wind > 20 kt
SIGMETs :     Misc.  Thunderstorms  Icing  Turbulence  Mountain Waves  Volcanic Ashes







- Airport Elevation : 512 ft
- IATA code : URO
- Download approach charts


LFOP - Rouen Vallée de Seine

CURRENT METAR :
  • 160830Z AUTO 32007KT 9999 FEW011 03/02 Q1015 NOSIG

EXPIRED METARs :
  • 160800Z AUTO 31008KT 280V350 9999 BKN012 BKN020 03/02 Q1015 BECMG BKN015
  • 160730Z AUTO 33007KT 9999 SCT013 03/02 Q1014 NOSIG
  • 160700Z AUTO 32007KT 9999 OVC012 04/02 Q1014 BECMG BKN015
  • 160630Z AUTO 33008KT 9999 BKN012 BKN019 OVC026 04/02 Q1014 BECMG BKN015
  • 160600Z AUTO 32009KT 9999 OVC012 04/03 Q1013 BECMG BKN015

TAF TAF LFOP
Valid from the 16 at 06:00 until the 17 at 06:00 UTC


160500Z 1606/1706 33010KT 9999 BKN015
TEMPO 1611/1613 3000 SHRA BKN008 BKN015TCU
BECMG 1617/1619 27005KT
TEMPO 1621/1624 3000 RA OVC007
BECMG 1700/1703 3000 BR OVC005
ATIS : +33 2 35 80 80 34
Met : +33 2 32 86 52 80
No reported NOTAMs for that airfield.



MET'MAP, your aeronautical weather chart ! - Copyright ORBIFLY December 2007 - Disclaimer

ORBIFLY MET'MAP TEAM :

Programming & Development : Alexandra Zaïnal
Concept & Development : Baudouin d'Aumeries
Co-Development & Prog : Marc-Olivier Méhu
Technical & hardware support : Manuel Goepfert

Contact : metmap@orbifly.com




SOURCES & CREDITS :

   NOAA